Terminal Aerodrome Forecast
Issued by NWS

Home | Current Version | Previous Version | Text Only | Print | Product List | Glossary On
Versions: 1 2 3 4 5 6 7 8 9 10 11 12 13 14 15 16 17 18 19 20 21 22 23 24 25 26 27 28 29
000
FTUS43 KILX 310036 AAA
TAFCMI
TAF AMD
KCMI 310036Z 3101/3124 13010KT P6SM VCSH SCT025 BKN100
      TEMPO 3101/3103 BKN025
     FM310300 25012G18KT 6SM BR VCSH SCT015 BKN050
      TEMPO 3103/3105 4SM -SHRA BR BKN015
     FM310500 26010KT P6SM VCSH BKN012
     FM310700 27011KT 4SM -RA BR OVC004
     FM311500 32015G19KT 5SM BR VCSH OVC005
     FM312200 33013KT 6SM BR OVC010=

USA.gov is the U.S. government's official web portal to all federal, state and local government web resources and services.